createdAt,value
2023-02-09T00:00:37.449Z,98618.13
2023-02-09T00:03:39.041Z,98605.31
2023-02-09T00:06:40.503Z,98606.78
2023-02-09T00:09:41.991Z,98606.78
2023-02-09T00:13:02.018Z,98608.50
2023-02-09T00:16:04.069Z,98616.63
2023-02-09T00:19:05.750Z,98605.41
2023-02-09T00:22:07.319Z,98606.84
2023-02-09T00:25:08.737Z,98607.63
2023-02-09T00:28:10.221Z,98604.69
2023-02-09T00:31:12.739Z,98605.72
2023-02-09T00:34:17.483Z,98603.09
2023-02-09T00:37:18.980Z,98597.34
2023-02-09T00:40:20.640Z,98595.03
2023-02-09T00:43:22.106Z,98585.56
2023-02-09T00:46:23.510Z,98601.28
2023-02-09T00:49:25.034Z,98592.09
2023-02-09T00:52:26.493Z,98597.41
2023-02-09T00:55:28.328Z,98595.84
2023-02-09T00:58:29.866Z,98603.16
2023-02-09T01:01:31.393Z,98589.81
2023-02-09T01:04:33.272Z,98604.88
2023-02-09T01:07:34.952Z,98600.50
2023-02-09T01:10:38.003Z,98600.31
2023-02-09T01:13:39.897Z,98603.69
2023-02-09T01:16:41.502Z,98596.88
2023-02-09T01:19:42.964Z,98599.22
2023-02-09T01:22:44.471Z,98596.00
2023-02-09T01:25:45.955Z,98600.31
2023-02-09T01:28:52.384Z,98596.75
2023-02-09T01:31:54.002Z,98592.75
2023-02-09T01:34:55.671Z,98606.66
2023-02-09T01:37:57.164Z,98602.41
2023-02-09T01:40:58.613Z,98591.19
2023-02-09T01:44:02.894Z,98592.88
2023-02-09T01:47:04.429Z,98587.91
2023-02-09T01:50:06.370Z,98587.22
2023-02-09T01:53:08.533Z,98585.81
2023-02-09T01:56:18.458Z,98589.34
2023-02-09T01:59:20.410Z,98590.09
2023-02-09T02:02:22.865Z,98589.41
2023-02-09T02:05:25.711Z,98585.06
2023-02-09T02:08:34.689Z,98582.41
2023-02-09T02:11:37.717Z,98577.03
2023-02-09T02:14:40.005Z,98578.66
2023-02-09T02:17:50.583Z,98575.50
2023-02-09T02:21:11.398Z,98571.28
2023-02-09T02:24:48.381Z,98573.44
2023-02-09T02:28:08.033Z,98571.75
2023-02-09T02:31:39.944Z,98576.16
2023-02-09T02:34:53.165Z,98571.91
2023-02-09T02:38:15.171Z,98576.06
2023-02-09T02:41:26.803Z,98568.13
2023-02-09T02:44:30.560Z,98570.91
2023-02-09T02:47:37.156Z,98573.06
2023-02-09T02:50:46.064Z,98578.97
2023-02-09T02:53:53.020Z,98577.34
2023-02-09T02:56:58.619Z,98575.44
2023-02-09T03:00:06.336Z,98580.69
2023-02-09T03:03:18.278Z,98577.19
2023-02-09T03:06:19.779Z,98579.72
2023-02-09T03:09:21.239Z,98582.91
2023-02-09T03:12:45.656Z,98576.22
2023-02-09T03:15:47.142Z,98579.53
2023-02-09T03:19:25.307Z,98578.31
2023-02-09T03:22:35.381Z,98573.03
2023-02-09T03:25:48.686Z,98572.19
2023-02-09T03:28:54.524Z,98564.00
2023-02-09T03:31:56.854Z,98565.81
2023-02-09T03:34:59.060Z,98560.00
2023-02-09T03:38:01.385Z,98565.81
2023-02-09T03:41:03.223Z,98558.16
2023-02-09T03:44:23.222Z,98566.03
2023-02-09T03:47:24.725Z,98561.00
2023-02-09T03:50:26.289Z,98555.06
2023-02-09T03:53:27.796Z,98561.09
2023-02-09T03:56:29.275Z,98554.06
2023-02-09T03:59:31.164Z,98539.41
2023-02-09T04:02:32.654Z,98540.19
2023-02-09T04:05:34.113Z,98547.13
2023-02-09T04:08:36.188Z,98544.66
2023-02-09T04:11:37.638Z,98554.06
2023-02-09T04:14:39.866Z,98549.91
2023-02-09T04:17:41.378Z,98559.47
2023-02-09T04:20:43.010Z,98558.78
2023-02-09T04:23:44.629Z,98569.22
2023-02-09T04:26:46.122Z,98575.31
2023-02-09T04:29:47.550Z,98575.09
2023-02-09T04:32:49.047Z,98574.13
2023-02-09T04:35:51.637Z,98577.66
2023-02-09T04:38:53.150Z,98575.69
2023-02-09T04:41:54.611Z,98578.59
2023-02-09T04:44:56.077Z,98563.50
2023-02-09T04:47:57.573Z,98574.59
2023-02-09T04:50:59.087Z,98575.47
2023-02-09T04:54:00.571Z,98581.53
2023-02-09T04:57:20.514Z,98579.63
2023-02-09T05:00:22.107Z,98568.59
2023-02-09T05:03:25.978Z,98568.94
2023-02-09T05:06:27.875Z,98573.13
2023-02-09T05:09:29.920Z,98573.94
2023-02-09T05:12:31.374Z,98567.81
2023-02-09T05:15:32.945Z,98570.41
2023-02-09T05:18:35.475Z,98568.34
2023-02-09T05:21:36.906Z,98565.69
2023-02-09T05:24:38.423Z,98567.25
2023-02-09T05:27:39.899Z,98557.69
2023-02-09T05:30:41.577Z,98572.25
2023-02-09T05:33:49.129Z,98568.75
2023-02-09T05:36:50.679Z,98562.84
2023-02-09T05:39:52.883Z,98566.16
2023-02-09T05:42:55.048Z,98567.03
2023-02-09T05:45:57.120Z,98573.31
2023-02-09T05:48:58.621Z,98561.25
2023-02-09T05:52:00.383Z,98568.84
2023-02-09T05:55:02.004Z,98565.22
2023-02-09T05:58:03.463Z,98564.50
2023-02-09T06:01:05.460Z,98566.47
2023-02-09T06:04:09.071Z,98570.91
2023-02-09T06:07:12.048Z,98576.28
2023-02-09T06:10:14.012Z,98572.81
2023-02-09T06:13:15.845Z,98580.66
2023-02-09T06:16:17.285Z,98588.34
2023-02-09T06:19:21.220Z,98587.50
2023-02-09T06:22:22.553Z,98598.69
2023-02-09T06:25:24.107Z,98593.50
2023-02-09T06:28:25.705Z,98597.81
2023-02-09T06:31:27.376Z,98609.16
2023-02-09T06:34:29.065Z,98602.09
2023-02-09T06:37:30.565Z,98608.88
2023-02-09T06:40:32.067Z,98619.41
2023-02-09T06:43:33.815Z,98613.44
2023-02-09T06:46:35.374Z,98624.50
2023-02-09T06:49:36.909Z,98610.66
2023-02-09T06:52:38.775Z,98616.53
2023-02-09T06:55:40.208Z,98613.75
2023-02-09T06:58:42.247Z,98629.84
2023-02-09T07:01:43.845Z,98630.91
2023-02-09T07:04:45.413Z,98637.59
2023-02-09T07:07:47.078Z,98646.16
2023-02-09T07:10:48.546Z,98640.13
2023-02-09T07:13:50.035Z,98637.56
2023-02-09T07:16:51.573Z,98641.84
2023-02-09T07:19:53.134Z,98638.06
2023-02-09T07:22:54.644Z,98634.44
2023-02-09T07:25:56.358Z,98628.38
2023-02-09T07:28:57.793Z,98629.72
2023-02-09T07:31:59.830Z,98643.84
2023-02-09T07:35:01.359Z,98640.03
2023-02-09T07:38:02.858Z,98637.88
2023-02-09T07:41:06.330Z,98641.00
2023-02-09T07:44:09.263Z,98631.31
2023-02-09T07:47:10.812Z,98640.25
2023-02-09T07:50:12.262Z,98637.34
2023-02-09T07:53:13.758Z,98642.75
2023-02-09T07:56:17.990Z,98649.06
2023-02-09T07:59:19.535Z,98638.16
2023-02-09T08:02:48.867Z,98646.25
2023-02-09T08:06:19.673Z,98655.25
2023-02-09T08:09:21.695Z,98647.13
2023-02-09T08:12:48.119Z,98644.81
2023-02-09T08:15:57.330Z,98647.97
2023-02-09T08:19:04.219Z,98650.22
2023-02-09T08:22:05.670Z,98654.75
2023-02-09T08:25:11.021Z,98654.09
2023-02-09T08:28:12.611Z,98654.81
2023-02-09T08:31:18.879Z,98660.41
2023-02-09T08:34:20.509Z,98659.88
2023-02-09T08:37:22.173Z,98652.44
2023-02-09T08:40:23.708Z,98660.56
2023-02-09T08:43:25.182Z,98657.47
2023-02-09T08:46:26.986Z,98656.16
2023-02-09T08:49:28.595Z,98660.94
2023-02-09T08:52:30.082Z,98660.56
2023-02-09T08:55:33.672Z,98659.16
2023-02-09T08:58:35.282Z,98661.47
2023-02-09T09:01:38.919Z,98661.06
2023-02-09T09:04:40.417Z,98651.75
2023-02-09T09:07:42.107Z,98657.47
2023-02-09T09:10:43.556Z,98663.06
2023-02-09T09:13:45.058Z,98665.25
2023-02-09T09:16:46.626Z,98661.31
2023-02-09T09:19:48.357Z,98661.66
2023-02-09T09:22:49.879Z,98663.75
2023-02-09T09:25:51.414Z,98660.63
2023-02-09T09:28:53.043Z,98661.13
2023-02-09T09:31:54.501Z,98657.19
2023-02-09T09:34:58.873Z,98661.63
2023-02-09T09:38:00.835Z,98663.31
2023-02-09T09:41:04.729Z,98659.66
2023-02-09T09:48:54.040Z,98673.19
2023-02-09T09:51:58.125Z,98665.59
2023-02-09T09:55:01.478Z,98673.38
2023-02-09T09:58:06.711Z,98677.09
2023-02-09T10:01:17.437Z,98677.63
2023-02-09T10:04:21.092Z,98684.34
2023-02-09T10:07:30.875Z,98680.47
2023-02-09T10:10:45.675Z,98684.19
2023-02-09T10:13:50.504Z,98688.00
2023-02-09T10:16:52.076Z,98690.16
2023-02-09T10:20:07.515Z,98687.63
2023-02-09T10:23:20.857Z,98700.50
2023-02-09T10:26:27.792Z,98697.81
2023-02-09T10:29:29.316Z,98702.19
2023-02-09T10:32:41.039Z,98700.25
2023-02-09T10:35:51.478Z,98702.38
2023-02-09T10:39:03.289Z,98705.81
2023-02-09T10:42:20.411Z,98710.88
2023-02-09T10:45:27.683Z,98707.41
2023-02-09T10:48:40.616Z,98699.91
2023-02-09T10:51:42.124Z,98697.06
2023-02-09T10:54:56.695Z,98690.06
2023-02-09T10:58:08.446Z,98692.38
2023-02-09T11:01:09.984Z,98696.06
2023-02-09T11:04:20.416Z,98692.31
2023-02-09T11:07:26.680Z,98686.19
2023-02-09T11:10:30.697Z,98687.41
2023-02-09T11:13:33.616Z,98681.16
2023-02-09T11:16:53.567Z,98675.72
2023-02-09T11:20:32.147Z,98672.44
2023-02-09T11:24:03.069Z,98667.91
2023-02-09T11:27:23.839Z,98669.41
2023-02-09T11:30:35.617Z,98669.31
2023-02-09T11:34:09.041Z,98661.41
2023-02-09T11:37:25.146Z,98656.97
2023-02-09T11:40:44.030Z,98663.38
2023-02-09T11:43:48.846Z,98656.28
2023-02-09T11:46:58.576Z,98659.63
2023-02-09T11:50:05.654Z,98650.84
2023-02-09T11:53:26.187Z,98651.22
2023-02-09T11:56:28.732Z,98647.50
2023-02-09T11:59:39.120Z,98649.63
2023-02-09T12:02:51.345Z,98634.75
2023-02-09T12:05:54.099Z,98632.66
2023-02-09T12:09:11.737Z,98637.91
2023-02-09T12:12:28.000Z,98631.84
2023-02-09T12:15:40.725Z,98617.81
2023-02-09T12:18:45.292Z,98611.63
2023-02-09T12:21:46.797Z,98598.22
2023-02-09T12:25:22.689Z,98611.53
2023-02-09T12:28:24.232Z,98605.53
2023-02-09T12:31:27.392Z,98603.31
2023-02-09T12:34:51.365Z,98607.19
2023-02-09T12:38:19.551Z,98611.38
2023-02-09T12:41:24.412Z,98587.88
2023-02-09T12:44:25.839Z,98589.00
2023-02-09T12:47:45.112Z,98593.19
2023-02-09T12:50:53.521Z,98593.09
2023-02-09T12:53:56.114Z,98599.13
2023-02-09T12:57:16.160Z,98599.19
2023-02-09T13:00:18.759Z,98600.19
2023-02-09T13:03:23.248Z,98586.22
2023-02-09T13:06:39.303Z,98582.78
2023-02-09T13:09:42.574Z,98598.28
2023-02-09T13:12:50.574Z,98598.72
2023-02-09T13:16:23.664Z,98596.81
2023-02-09T13:19:48.926Z,98596.59
2023-02-09T13:22:50.399Z,98580.47
2023-02-09T13:26:00.422Z,98595.00
2023-02-09T13:29:21.762Z,98583.78
2023-02-09T13:32:34.774Z,98581.78
2023-02-09T13:35:57.187Z,98580.91
2023-02-09T13:38:58.931Z,98585.97
2023-02-09T13:42:00.669Z,98592.00
2023-02-09T13:45:02.430Z,98581.16
2023-02-09T13:48:20.061Z,98588.78
2023-02-09T13:51:23.586Z,98595.38
2023-02-09T13:54:25.085Z,98598.00
2023-02-09T13:57:33.888Z,98606.00
2023-02-09T14:00:41.109Z,98616.53
2023-02-09T14:03:58.528Z,98615.06
2023-02-09T14:07:08.408Z,98614.72
2023-02-09T14:10:16.999Z,98614.97
2023-02-09T14:13:31.308Z,98619.34
2023-02-09T14:16:41.662Z,98626.94
2023-02-09T14:19:54.890Z,98620.50
2023-02-09T14:22:58.987Z,98612.16
2023-02-09T14:26:20.907Z,98614.31
2023-02-09T14:29:31.359Z,98621.06
2023-02-09T14:32:38.173Z,98630.09
2023-02-09T14:35:41.249Z,98627.50
2023-02-09T14:38:42.889Z,98629.81
2023-02-09T14:42:17.653Z,98637.91
2023-02-09T14:45:35.309Z,98630.63
2023-02-09T14:48:36.853Z,98629.31
2023-02-09T14:51:38.425Z,98636.72
2023-02-09T14:54:48.961Z,98634.25
2023-02-09T14:57:50.391Z,98638.00
2023-02-09T15:00:54.102Z,98640.38
2023-02-09T15:03:55.664Z,98631.13
2023-02-09T15:07:01.716Z,98644.16
2023-02-09T15:10:15.852Z,98650.56
2023-02-09T15:13:17.421Z,98645.66
2023-02-09T15:16:19.012Z,98642.13
2023-02-09T15:19:22.391Z,98646.06
2023-02-09T15:22:24.414Z,98646.03
2023-02-09T15:25:26.227Z,98644.31
2023-02-09T15:28:28.712Z,98653.34
2023-02-09T15:31:30.484Z,98659.03
2023-02-09T15:34:31.996Z,98658.44
2023-02-09T15:37:37.057Z,98662.34
2023-02-09T15:41:01.226Z,98658.91
2023-02-09T15:44:34.368Z,98660.50
2023-02-09T15:47:52.783Z,98657.91
2023-02-09T15:50:55.119Z,98664.47
2023-02-09T15:54:00.152Z,98668.16
2023-02-09T15:57:01.663Z,98658.44
2023-02-09T16:00:14.737Z,98663.91
2023-02-09T16:03:19.141Z,98670.00
2023-02-09T16:06:26.409Z,98657.81
2023-02-09T16:09:29.260Z,98666.41
2023-02-09T16:12:30.785Z,98683.19
2023-02-09T16:15:32.278Z,98687.25
2023-02-09T16:18:33.915Z,98688.38
2023-02-09T16:21:36.122Z,98690.34
2023-02-09T16:24:55.770Z,98691.06
2023-02-09T16:27:58.038Z,98695.91
2023-02-09T16:30:59.703Z,98709.41
2023-02-09T16:34:01.239Z,98716.72
2023-02-09T16:37:03.975Z,98713.84
2023-02-09T16:40:28.753Z,98721.81
2023-02-09T16:43:31.024Z,98714.75
2023-02-09T16:46:33.634Z,98721.81
2023-02-09T16:49:37.309Z,98725.97
2023-02-09T16:52:42.923Z,98729.78
2023-02-09T16:55:48.813Z,98733.50
2023-02-09T16:58:50.811Z,98738.63
2023-02-09T17:01:52.387Z,98745.34
2023-02-09T17:04:54.251Z,98741.00
2023-02-09T17:08:05.548Z,98745.13
2023-02-09T17:11:07.764Z,98750.06
2023-02-09T17:14:09.476Z,98711.81
2023-02-09T17:17:19.004Z,98744.66
2023-02-09T17:20:29.417Z,98748.22
2023-02-09T17:23:31.036Z,98740.97
2023-02-09T17:26:32.573Z,98745.88
2023-02-09T17:29:34.149Z,98749.31
2023-02-09T17:32:36.426Z,98753.19
2023-02-09T17:36:17.534Z,98751.19
2023-02-09T17:39:01.637Z,98760.22
2023-02-09T17:42:03.339Z,98761.28
2023-02-09T17:45:05.042Z,98767.97
2023-02-09T17:48:08.970Z,98769.06
2023-02-09T17:51:20.197Z,98773.16
2023-02-09T17:54:21.749Z,98779.34
2023-02-09T17:57:23.608Z,98784.97
2023-02-09T18:00:26.425Z,98788.72
2023-02-09T18:03:28.017Z,98792.25
2023-02-09T18:06:38.869Z,98796.88
2023-02-09T18:09:40.357Z,98799.72
2023-02-09T18:12:42.360Z,98806.38
2023-02-09T18:15:44.466Z,98815.84
2023-02-09T18:18:47.157Z,98824.00
2023-02-09T18:21:50.486Z,98823.00
2023-02-09T18:24:52.072Z,98830.69
2023-02-09T18:27:54.436Z,98836.84
2023-02-09T18:30:56.127Z,98841.13
2023-02-09T18:33:57.722Z,98846.47
2023-02-09T18:36:59.233Z,98835.59
2023-02-09T18:40:00.679Z,98847.22
2023-02-09T18:43:04.875Z,98841.97
2023-02-09T18:46:06.622Z,98843.31
2023-02-09T18:49:12.012Z,98856.53
2023-02-09T18:52:20.834Z,98848.91
2023-02-09T18:55:24.711Z,98856.53
2023-02-09T18:58:26.281Z,98864.25
2023-02-09T19:01:27.807Z,98860.72
2023-02-09T19:04:29.395Z,98866.31
2023-02-09T19:07:32.295Z,98859.75
2023-02-09T19:10:35.963Z,98866.59
2023-02-09T19:13:37.566Z,98878.16
2023-02-09T19:16:41.103Z,98882.03
2023-02-09T19:19:43.365Z,98874.50
2023-02-09T19:22:47.146Z,98876.56
2023-02-09T19:25:48.814Z,98872.16
2023-02-09T19:28:50.445Z,98872.66
2023-02-09T19:31:55.868Z,98869.28
2023-02-09T19:34:57.360Z,98870.72
2023-02-09T19:37:59.253Z,98872.66
2023-02-09T19:41:10.768Z,98874.28
2023-02-09T19:44:12.876Z,98878.38
2023-02-09T19:47:14.948Z,98864.03
2023-02-09T19:50:16.893Z,98861.75
2023-02-09T19:53:18.379Z,98876.34
2023-02-09T19:56:20.857Z,98882.63
2023-02-09T19:59:22.411Z,98880.09
2023-02-09T20:02:23.972Z,98885.28
2023-02-09T20:05:25.500Z,98888.72
2023-02-09T20:08:26.992Z,98890.78
2023-02-09T20:11:28.559Z,98890.94
2023-02-09T20:14:31.630Z,98901.44
2023-02-09T20:17:34.940Z,98902.31
2023-02-09T20:20:41.060Z,98900.50
2023-02-09T20:23:44.966Z,98904.13
2023-02-09T20:26:48.129Z,98906.72
2023-02-09T20:29:49.994Z,98896.69
2023-02-09T20:32:51.609Z,98894.09
2023-02-09T20:35:53.155Z,98900.97
2023-02-09T20:38:54.952Z,98886.22
2023-02-09T20:42:16.936Z,98903.38
2023-02-09T20:45:36.977Z,98909.34
2023-02-09T20:48:38.566Z,98906.97
2023-02-09T20:51:40.379Z,98900.06
2023-02-09T20:54:41.974Z,98905.06
2023-02-09T20:57:43.516Z,98914.88
2023-02-09T21:00:45.371Z,98920.13
2023-02-09T21:03:46.882Z,98910.69
2023-02-09T21:06:48.440Z,98916.84
2023-02-09T21:09:49.931Z,98907.59
2023-02-09T21:12:51.489Z,98921.41
2023-02-09T21:15:53.031Z,98917.69
2023-02-09T21:18:54.549Z,98921.19
2023-02-09T21:21:56.623Z,98917.13
2023-02-09T21:24:58.124Z,98932.00
2023-02-09T21:27:59.742Z,98930.59
2023-02-09T21:31:01.425Z,98940.81
2023-02-09T21:34:03.983Z,98919.94
2023-02-09T21:37:07.963Z,98925.00
2023-02-09T21:40:10.641Z,98920.84
2023-02-09T21:43:12.337Z,98923.53
2023-02-09T21:46:16.894Z,98925.69
2023-02-09T21:49:18.467Z,98927.81
2023-02-09T21:52:20.086Z,98926.06
2023-02-09T21:55:22.027Z,98926.81
2023-02-09T21:58:23.487Z,98926.66
2023-02-09T22:01:25.101Z,98931.97
2023-02-09T22:04:26.553Z,98945.13
2023-02-09T22:07:28.135Z,98956.53
2023-02-09T22:10:29.593Z,98949.06
2023-02-09T22:13:31.112Z,98954.84
2023-02-09T22:16:32.726Z,98948.88
2023-02-09T22:19:34.619Z,98959.22
2023-02-09T22:22:36.116Z,98970.66
2023-02-09T22:25:37.615Z,98975.13
2023-02-09T22:28:39.940Z,98982.94
2023-02-09T22:31:42.206Z,98980.56
2023-02-09T22:34:43.661Z,98983.25
2023-02-09T22:37:45.382Z,98988.16
2023-02-09T22:40:46.857Z,98993.34
2023-02-09T22:44:05.948Z,99002.81
2023-02-09T22:47:07.466Z,99009.00
2023-02-09T22:50:09.195Z,99020.38
2023-02-09T22:53:10.639Z,99024.16
2023-02-09T22:56:13.268Z,99026.69
2023-02-09T22:59:15.733Z,99022.59
2023-02-09T23:02:17.420Z,99026.06
2023-02-09T23:05:18.856Z,99038.13
2023-02-09T23:08:22.332Z,99039.94
2023-02-09T23:11:24.703Z,99040.09
2023-02-09T23:14:26.251Z,99033.25
2023-02-09T23:17:27.765Z,99040.59
2023-02-09T23:20:29.269Z,99048.41
2023-02-09T23:23:30.935Z,99057.88
2023-02-09T23:26:32.970Z,99056.44
2023-02-09T23:29:34.572Z,99055.84
2023-02-09T23:32:36.116Z,99056.88
2023-02-09T23:35:41.697Z,99057.72
2023-02-09T23:38:44.924Z,99064.63
2023-02-09T23:41:46.670Z,99075.09
2023-02-09T23:44:48.206Z,99080.41
2023-02-09T23:47:49.860Z,99072.75
2023-02-09T23:50:51.324Z,99072.00
2023-02-09T23:53:54.267Z,99074.00
2023-02-09T23:56:55.741Z,99079.88
2023-02-09T23:59:57.471Z,99086.00
